createdAt,value
2022-10-17T00:02:11.015Z,8.50
2022-10-17T00:04:40.794Z,11.02
2022-10-17T00:07:07.350Z,9.20
2022-10-17T00:09:33.969Z,9.30
2022-10-17T00:12:00.652Z,9.43
2022-10-17T00:14:27.234Z,9.50
2022-10-17T00:16:53.797Z,9.50
2022-10-17T00:19:20.442Z,8.27
2022-10-17T00:21:50.809Z,8.20
2022-10-17T00:24:17.401Z,10.07
2022-10-17T00:26:44.676Z,11.38
2022-10-17T00:29:11.300Z,11.48
2022-10-17T00:31:37.910Z,12.32
2022-10-17T00:34:04.667Z,11.40
2022-10-17T00:36:31.429Z,12.70
2022-10-17T00:38:59.539Z,10.32
2022-10-17T00:41:32.338Z,11.13
2022-10-17T00:44:13.033Z,9.80
2022-10-17T00:46:40.722Z,11.07
2022-10-17T00:49:10.025Z,8.88
2022-10-17T00:51:57.695Z,9.90
2022-10-17T00:54:28.908Z,11.38
2022-10-17T00:56:55.791Z,10.48
2022-10-17T00:59:23.554Z,10.13
2022-10-17T01:02:04.780Z,13.52
2022-10-17T01:04:32.495Z,10.20
2022-10-17T01:06:59.117Z,11.07
2022-10-17T01:09:27.331Z,9.75
2022-10-17T01:12:05.414Z,10.60
2022-10-17T01:14:37.700Z,11.43
2022-10-17T01:17:41.704Z,10.57
2022-10-17T01:20:20.300Z,9.07
2022-10-17T01:23:00.016Z,11.13
2022-10-17T01:25:47.271Z,10.82
2022-10-17T01:28:50.358Z,11.95
2022-10-17T01:31:26.260Z,12.68
2022-10-17T01:34:17.798Z,10.10
2022-10-17T01:37:02.529Z,10.45
2022-10-17T01:39:47.922Z,7.32
2022-10-17T01:42:33.487Z,8.38
2022-10-17T01:45:09.116Z,7.95
2022-10-17T01:47:35.988Z,8.05
2022-10-17T01:50:21.561Z,10.27
2022-10-17T01:53:02.812Z,10.43
2022-10-17T01:55:34.953Z,11.85
2022-10-17T01:58:16.716Z,9.23
2022-10-17T02:00:45.585Z,8.70
2022-10-17T02:03:16.695Z,12.02
2022-10-17T02:05:44.844Z,7.90
2022-10-17T02:08:13.830Z,8.85
2022-10-17T02:10:43.015Z,8.25
2022-10-17T02:13:23.410Z,10.23
2022-10-17T02:16:01.723Z,9.25
2022-10-17T02:18:46.503Z,8.57
2022-10-17T02:21:24.326Z,8.15
2022-10-17T02:24:20.562Z,8.43
2022-10-17T02:27:10.344Z,7.75
2022-10-17T02:29:45.749Z,8.00
2022-10-17T02:34:50.899Z,7.78
2022-10-17T02:37:23.039Z,9.20
2022-10-17T02:39:50.920Z,9.10
2022-10-17T02:42:18.888Z,9.45
2022-10-17T02:44:47.088Z,9.82
2022-10-17T02:47:45.663Z,10.32
2022-10-17T02:50:12.373Z,10.63
2022-10-17T02:52:59.205Z,10.70
2022-10-17T02:55:36.170Z,9.23
2022-10-17T02:58:19.065Z,11.30
2022-10-17T03:00:46.159Z,7.88
2022-10-17T03:03:25.901Z,10.88
2022-10-17T03:05:53.253Z,21.25
2022-10-17T03:08:20.724Z,19.50
2022-10-17T03:10:48.911Z,18.92
2022-10-17T03:13:16.648Z,26.27
2022-10-17T03:15:43.494Z,27.25
2022-10-17T03:18:10.142Z,16.52
2022-10-17T03:20:36.720Z,11.70
2022-10-17T03:23:03.503Z,17.42
2022-10-17T03:25:30.236Z,13.30
2022-10-17T03:27:59.447Z,14.20
2022-10-17T03:30:26.053Z,12.02
2022-10-17T03:32:52.988Z,12.35
2022-10-17T03:35:19.680Z,12.82
2022-10-17T03:37:46.260Z,11.40
2022-10-17T03:40:16.652Z,10.40
2022-10-17T03:42:43.266Z,14.38
2022-10-17T03:45:10.112Z,13.80
2022-10-17T03:47:36.783Z,10.40
2022-10-17T03:50:04.505Z,12.82
2022-10-17T03:52:31.157Z,21.08
2022-10-17T03:55:02.012Z,22.00
2022-10-17T03:57:28.814Z,20.83
2022-10-17T03:59:55.646Z,23.25
2022-10-17T04:02:22.293Z,19.90
2022-10-17T04:04:48.893Z,16.45
2022-10-17T04:07:15.523Z,13.35
2022-10-17T04:09:43.663Z,10.80
2022-10-17T17:05:39.057Z,15.75
2022-10-17T17:08:08.021Z,20.60
2022-10-17T17:10:38.292Z,21.33
2022-10-17T17:13:04.915Z,15.18
2022-10-17T17:15:31.490Z,17.67
2022-10-17T17:18:00.474Z,13.95
2022-10-17T17:20:30.828Z,17.95
2022-10-17T17:22:57.426Z,19.58
2022-10-17T17:25:24.133Z,19.52
2022-10-17T17:27:50.780Z,20.02
2022-10-17T17:30:17.504Z,14.02
2022-10-17T17:32:45.171Z,14.57
2022-10-17T17:35:11.814Z,11.77
2022-10-17T17:37:38.368Z,14.88
2022-10-17T17:40:06.231Z,14.70
2022-10-17T17:42:32.876Z,13.65
2022-10-17T17:44:59.498Z,7.70
2022-10-17T17:47:29.020Z,12.65
2022-10-17T17:49:56.108Z,9.45
2022-10-17T17:52:22.704Z,16.23
2022-10-17T17:54:49.331Z,13.35
2022-10-17T17:57:17.448Z,14.40
2022-10-17T17:59:44.047Z,13.57
2022-10-17T18:02:11.403Z,11.13
2022-10-17T18:04:38.866Z,13.65
2022-10-17T18:07:06.694Z,12.77
2022-10-17T18:09:33.352Z,15.50
2022-10-17T18:12:00.730Z,13.43
2022-10-17T18:14:27.464Z,13.07
2022-10-17T18:16:54.039Z,9.48
2022-10-17T18:19:23.659Z,11.25
2022-10-17T18:21:50.249Z,10.27
2022-10-17T18:24:16.847Z,11.50
2022-10-17T18:26:43.449Z,13.55
2022-10-17T18:29:12.671Z,11.90
2022-10-17T18:31:39.325Z,14.95
2022-10-17T18:34:06.040Z,16.73
2022-10-17T18:36:34.053Z,12.65
2022-10-17T18:39:01.963Z,15.18
2022-10-17T18:41:28.873Z,14.52
2022-10-17T18:43:56.458Z,19.10
2022-10-17T18:46:25.350Z,17.35
2022-10-17T18:48:53.233Z,14.63
2022-10-17T18:51:22.258Z,17.48
2022-10-17T18:53:51.321Z,16.92
2022-10-17T18:56:19.248Z,17.05
2022-10-17T18:58:46.208Z,16.65
2022-10-17T19:01:18.597Z,15.73
2022-10-17T19:03:47.238Z,14.35
2022-10-17T19:06:15.944Z,16.65
2022-10-17T19:08:43.398Z,15.05
2022-10-17T19:11:22.912Z,15.90
2022-10-17T19:13:50.263Z,16.90
2022-10-17T19:16:24.975Z,13.98
2022-10-17T19:19:11.612Z,12.63
2022-10-17T19:24:08.185Z,15.25
2022-10-17T19:26:36.607Z,13.32
2022-10-17T19:29:05.329Z,15.60
2022-10-17T19:31:33.727Z,13.30
2022-10-17T19:34:00.634Z,13.02
2022-10-17T19:36:32.449Z,10.23
2022-10-17T19:39:05.364Z,17.27
2022-10-17T19:41:33.047Z,15.52
2022-10-17T19:44:00.737Z,16.65
2022-10-17T19:46:29.216Z,13.77
2022-10-17T19:48:56.330Z,13.95
2022-10-17T19:51:24.636Z,12.85
2022-10-17T19:53:52.457Z,10.50
2022-10-17T19:56:24.468Z,14.40
2022-10-17T19:58:51.693Z,13.48
2022-10-17T20:01:28.543Z,12.10
2022-10-17T20:03:55.847Z,15.63
2022-10-17T20:06:22.576Z,17.77
2022-10-17T20:08:50.097Z,14.68
2022-10-17T20:11:19.074Z,11.20
2022-10-17T20:13:46.053Z,13.60
2022-10-17T20:16:18.359Z,10.13
2022-10-17T20:18:45.104Z,17.27
2022-10-17T20:21:17.168Z,17.05
2022-10-17T20:23:45.648Z,16.05
2022-10-17T20:29:03.857Z,16.55
2022-10-17T20:31:30.594Z,12.45
2022-10-17T20:33:58.900Z,17.83
2022-10-17T20:36:26.375Z,11.73
2022-10-17T20:38:57.339Z,12.85
2022-10-17T20:41:25.417Z,15.35
2022-10-17T20:43:53.350Z,12.60
2022-10-17T20:46:36.459Z,10.55
2022-10-17T20:49:05.811Z,13.35
2022-10-17T20:51:32.776Z,14.15
2022-10-17T20:53:59.489Z,12.10
2022-10-17T20:56:30.413Z,12.27
2022-10-17T20:58:59.855Z,12.95
2022-10-17T21:01:27.562Z,12.55
2022-10-17T21:03:54.410Z,11.68
2022-10-17T21:06:23.221Z,11.00
2022-10-17T21:08:52.312Z,18.27
2022-10-17T21:11:22.447Z,8.65
2022-10-17T21:13:55.664Z,10.35
2022-10-17T21:16:22.552Z,12.73
2022-10-17T21:18:52.728Z,13.75
2022-10-17T21:21:21.845Z,12.80
2022-10-17T21:23:50.401Z,17.90
2022-10-17T21:26:18.907Z,8.98
2022-10-17T21:28:47.004Z,11.90
2022-10-17T21:31:22.374Z,14.10
2022-10-17T21:33:52.391Z,12.07
2022-10-17T21:36:19.863Z,11.73
2022-10-17T21:38:48.729Z,12.80
2022-10-17T21:41:19.572Z,13.15
2022-10-17T21:43:47.029Z,11.82
2022-10-17T21:46:17.418Z,11.20
2022-10-17T21:48:45.373Z,13.32
2022-10-17T21:51:15.107Z,15.05
2022-10-17T21:53:42.822Z,14.30
2022-10-17T21:56:11.715Z,14.32
2022-10-17T21:58:38.331Z,13.38
2022-10-17T22:01:10.592Z,14.00
2022-10-17T22:03:44.090Z,11.48
2022-10-17T22:09:21.244Z,12.20
2022-10-17T22:11:50.639Z,13.50
2022-10-17T22:14:19.724Z,17.10
2022-10-17T22:16:47.803Z,9.40
2022-10-17T22:19:17.487Z,13.93
2022-10-17T22:21:44.636Z,14.00
2022-10-17T22:24:13.670Z,6.90
2022-10-17T22:26:42.306Z,14.07
2022-10-17T22:29:09.699Z,11.77
2022-10-17T22:31:37.412Z,12.70
2022-10-17T22:34:05.712Z,11.90
2022-10-17T22:36:33.403Z,11.60
2022-10-17T22:38:59.992Z,14.20
2022-10-17T22:41:29.628Z,14.32
2022-10-17T22:43:56.369Z,15.50
2022-10-17T22:46:23.132Z,14.32
2022-10-17T22:48:49.832Z,14.55
2022-10-17T22:51:16.502Z,15.70
2022-10-17T22:53:43.198Z,13.10
2022-10-17T22:56:13.673Z,11.98
2022-10-17T22:58:40.403Z,13.32
2022-10-17T23:01:08.595Z,17.63
2022-10-17T23:03:39.076Z,13.60
2022-10-17T23:06:05.811Z,14.48
2022-10-17T23:08:32.563Z,14.05
2022-10-17T23:11:00.621Z,11.90
2022-10-17T23:13:27.253Z,13.30
2022-10-17T23:15:55.612Z,13.93
2022-10-17T23:18:23.849Z,8.10
2022-10-17T23:20:50.808Z,17.23
2022-10-17T23:23:18.747Z,16.70
2022-10-17T23:25:45.660Z,17.00
2022-10-17T23:28:13.035Z,14.35
2022-10-17T23:30:40.302Z,17.40
2022-10-17T23:33:08.656Z,14.85
2022-10-17T23:35:35.595Z,15.05
2022-10-17T23:38:02.540Z,16.30
2022-10-17T23:40:29.704Z,11.52
2022-10-17T23:42:56.351Z,16.08
2022-10-17T23:45:22.971Z,13.00
2022-10-17T23:47:49.695Z,12.73
2022-10-17T23:50:16.561Z,10.88
2022-10-17T23:52:43.284Z,13.80
2022-10-17T23:58:57.033Z,18.02
